sensor_id;sensor_type;location;lat;lon;timestamp;P1;durP1;ratioP1;P2;durP2;ratioP2
30872;SDS011;17579;42.690;2.586;2023-04-15T00:00:46;2.33;;;0.40;;
30872;SDS011;17579;42.690;2.586;2023-04-15T00:03:12;2.50;;;0.60;;
30872;SDS011;17579;42.690;2.586;2023-04-15T00:05:40;1.75;;;0.75;;
30872;SDS011;17579;42.690;2.586;2023-04-15T00:08:06;2.45;;;0.63;;
30872;SDS011;17579;42.690;2.586;2023-04-15T00:10:37;1.60;;;0.73;;
30872;SDS011;17579;42.690;2.586;2023-04-15T00:13:03;4.35;;;0.98;;
30872;SDS011;17579;42.690;2.586;2023-04-15T00:15:31;3.13;;;0.80;;
30872;SDS011;17579;42.690;2.586;2023-04-15T00:17:57;4.47;;;1.00;;
30872;SDS011;17579;42.690;2.586;2023-04-15T00:20:28;4.22;;;1.05;;
30872;SDS011;17579;42.690;2.586;2023-04-15T00:22:59;3.03;;;0.68;;
30872;SDS011;17579;42.690;2.586;2023-04-15T00:25:28;1.95;;;1.05;;
30872;SDS011;17579;42.690;2.586;2023-04-15T00:27:56;2.15;;;1.00;;
30872;SDS011;17579;42.690;2.586;2023-04-15T00:30:22;1.60;;;0.70;;
30872;SDS011;17579;42.690;2.586;2023-04-15T00:32:50;4.00;;;1.20;;
30872;SDS011;17579;42.690;2.586;2023-04-15T00:35:16;1.38;;;0.70;;
30872;SDS011;17579;42.690;2.586;2023-04-15T00:37:48;2.08;;;0.95;;
30872;SDS011;17579;42.690;2.586;2023-04-15T00:40:17;2.53;;;0.82;;
30872;SDS011;17579;42.690;2.586;2023-04-15T00:42:54;2.97;;;1.20;;
30872;SDS011;17579;42.690;2.586;2023-04-15T00:45:19;2.50;;;1.10;;
30872;SDS011;17579;42.690;2.586;2023-04-15T00:47:51;4.38;;;1.20;;
30872;SDS011;17579;42.690;2.586;2023-04-15T00:50:17;2.95;;;1.17;;
30872;SDS011;17579;42.690;2.586;2023-04-15T00:52:48;1.95;;;1.05;;
30872;SDS011;17579;42.690;2.586;2023-04-15T00:55:14;2.80;;;1.10;;
30872;SDS011;17579;42.690;2.586;2023-04-15T00:57:46;2.03;;;1.10;;
30872;SDS011;17579;42.690;2.586;2023-04-15T01:00:13;2.00;;;0.90;;
30872;SDS011;17579;42.690;2.586;2023-04-15T01:02:39;1.38;;;0.70;;
30872;SDS011;17579;42.690;2.586;2023-04-15T01:05:04;2.85;;;0.68;;
30872;SDS011;17579;42.690;2.586;2023-04-15T01:07:44;2.03;;;0.90;;
30872;SDS011;17579;42.690;2.586;2023-04-15T01:13:02;2.58;;;0.70;;
30872;SDS011;17579;42.690;2.586;2023-04-15T01:15:28;1.80;;;0.70;;
30872;SDS011;17579;42.690;2.586;2023-04-15T01:17:58;1.63;;;0.60;;
30872;SDS011;17579;42.690;2.586;2023-04-15T01:20:26;3.72;;;1.02;;
30872;SDS011;17579;42.690;2.586;2023-04-15T01:22:58;1.58;;;0.70;;
30872;SDS011;17579;42.690;2.586;2023-04-15T01:25:48;3.55;;;0.80;;
30872;SDS011;17579;42.690;2.586;2023-04-15T01:28:18;1.58;;;0.77;;
30872;SDS011;17579;42.690;2.586;2023-04-15T01:30:46;1.02;;;0.52;;
30872;SDS011;17579;42.690;2.586;2023-04-15T01:33:12;1.40;;;0.75;;
30872;SDS011;17579;42.690;2.586;2023-04-15T01:35:38;1.17;;;0.68;;
30872;SDS011;17579;42.690;2.586;2023-04-15T01:38:09;2.28;;;0.90;;
30872;SDS011;17579;42.690;2.586;2023-04-15T01:40:39;2.33;;;0.68;;
30872;SDS011;17579;42.690;2.586;2023-04-15T01:43:08;2.55;;;1.00;;
30872;SDS011;17579;42.690;2.586;2023-04-15T01:45:33;1.70;;;0.68;;
30872;SDS011;17579;42.690;2.586;2023-04-15T01:48:01;2.25;;;0.90;;
30872;SDS011;17579;42.690;2.586;2023-04-15T01:50:48;1.45;;;0.90;;
30872;SDS011;17579;42.690;2.586;2023-04-15T01:53:19;3.65;;;1.02;;
30872;SDS011;17579;42.690;2.586;2023-04-15T01:55:45;4.30;;;1.10;;
30872;SDS011;17579;42.690;2.586;2023-04-15T01:58:11;3.17;;;1.40;;
30872;SDS011;17579;42.690;2.586;2023-04-15T02:00:43;4.13;;;1.38;;
30872;SDS011;17579;42.690;2.586;2023-04-15T02:06:24;4.15;;;1.40;;
30872;SDS011;17579;42.690;2.586;2023-04-15T02:08:50;3.92;;;1.30;;
30872;SDS011;17579;42.690;2.586;2023-04-15T02:11:18;3.80;;;1.10;;
30872;SDS011;17579;42.690;2.586;2023-04-15T02:13:47;4.82;;;1.40;;
30872;SDS011;17579;42.690;2.586;2023-04-15T02:18:46;5.28;;;1.42;;
30872;SDS011;17579;42.690;2.586;2023-04-15T02:21:16;4.30;;;1.02;;
30872;SDS011;17579;42.690;2.586;2023-04-15T02:23:43;3.42;;;1.25;;
30872;SDS011;17579;42.690;2.586;2023-04-15T02:26:21;3.58;;;1.77;;
30872;SDS011;17579;42.690;2.586;2023-04-15T02:28:47;3.28;;;1.30;;
30872;SDS011;17579;42.690;2.586;2023-04-15T02:31:17;2.13;;;0.95;;
30872;SDS011;17579;42.690;2.586;2023-04-15T02:33:45;2.40;;;1.00;;
30872;SDS011;17579;42.690;2.586;2023-04-15T02:36:34;2.38;;;1.20;;
30872;SDS011;17579;42.690;2.586;2023-04-15T02:39:05;1.67;;;0.98;;
30872;SDS011;17579;42.690;2.586;2023-04-15T02:41:44;2.00;;;1.05;;
30872;SDS011;17579;42.690;2.586;2023-04-15T02:44:15;2.35;;;1.00;;
30872;SDS011;17579;42.690;2.586;2023-04-15T02:47:04;2.83;;;0.85;;
30872;SDS011;17579;42.690;2.586;2023-04-15T02:49:31;1.30;;;0.63;;
30872;SDS011;17579;42.690;2.586;2023-04-15T02:52:16;1.95;;;0.73;;
30872;SDS011;17579;42.690;2.586;2023-04-15T02:54:41;1.63;;;0.50;;
30872;SDS011;17579;42.690;2.586;2023-04-15T02:57:09;1.70;;;0.70;;
30872;SDS011;17579;42.690;2.586;2023-04-15T02:59:47;3.53;;;0.70;;
30872;SDS011;17579;42.690;2.586;2023-04-15T03:02:20;1.42;;;0.35;;
30872;SDS011;17579;42.690;2.586;2023-04-15T03:04:48;1.10;;;0.55;;
30872;SDS011;17579;42.690;2.586;2023-04-15T03:07:17;3.42;;;0.50;;
30872;SDS011;17579;42.690;2.586;2023-04-15T03:09:44;0.80;;;0.57;;
30872;SDS011;17579;42.690;2.586;2023-04-15T03:12:21;0.52;;;0.30;;
30872;SDS011;17579;42.690;2.586;2023-04-15T03:14:47;2.65;;;0.55;;
30872;SDS011;17579;42.690;2.586;2023-04-15T03:17:13;0.73;;;0.30;;
30872;SDS011;17579;42.690;2.586;2023-04-15T03:19:42;0.63;;;0.40;;
30872;SDS011;17579;42.690;2.586;2023-04-15T03:22:08;0.45;;;0.30;;
30872;SDS011;17579;42.690;2.586;2023-04-15T03:24:36;1.17;;;0.60;;
30872;SDS011;17579;42.690;2.586;2023-04-15T03:27:02;1.60;;;0.50;;
30872;SDS011;17579;42.690;2.586;2023-04-15T03:29:38;2.55;;;0.52;;
30872;SDS011;17579;42.690;2.586;2023-04-15T03:32:06;2.13;;;0.70;;
30872;SDS011;17579;42.690;2.586;2023-04-15T03:34:32;1.27;;;0.57;;
30872;SDS011;17579;42.690;2.586;2023-04-15T03:36:57;1.77;;;0.65;;
30872;SDS011;17579;42.690;2.586;2023-04-15T03:39:26;1.83;;;0.60;;
30872;SDS011;17579;42.690;2.586;2023-04-15T03:41:54;2.92;;;0.75;;
30872;SDS011;17579;42.690;2.586;2023-04-15T03:44:28;1.40;;;0.70;;
30872;SDS011;17579;42.690;2.586;2023-04-15T03:49:51;1.98;;;0.68;;
30872;SDS011;17579;42.690;2.586;2023-04-15T03:52:19;0.60;;;0.45;;
30872;SDS011;17579;42.690;2.586;2023-04-15T03:54:48;2.08;;;0.70;;
30872;SDS011;17579;42.690;2.586;2023-04-15T03:57:19;1.98;;;0.55;;
30872;SDS011;17579;42.690;2.586;2023-04-15T03:59:45;1.55;;;0.68;;
30872;SDS011;17579;42.690;2.586;2023-04-15T04:02:11;2.05;;;0.35;;
30872;SDS011;17579;42.690;2.586;2023-04-15T04:04:39;1.60;;;0.40;;
30872;SDS011;17579;42.690;2.586;2023-04-15T04:09:38;0.85;;;0.52;;
30872;SDS011;17579;42.690;2.586;2023-04-15T04:12:06;0.47;;;0.38;;
30872;SDS011;17579;42.690;2.586;2023-04-15T04:14:38;1.45;;;0.52;;
30872;SDS011;17579;42.690;2.586;2023-04-15T04:17:14;1.02;;;0.65;;
30872;SDS011;17579;42.690;2.586;2023-04-15T04:19:51;0.60;;;0.40;;
30872;SDS011;17579;42.690;2.586;2023-04-15T04:22:16;1.05;;;0.30;;
30872;SDS011;17579;42.690;2.586;2023-04-15T04:24:42;0.80;;;0.30;;
30872;SDS011;17579;42.690;2.586;2023-04-15T04:27:08;1.20;;;0.63;;
30872;SDS011;17579;42.690;2.586;2023-04-15T04:29:43;0.88;;;0.57;;
30872;SDS011;17579;42.690;2.586;2023-04-15T04:32:09;1.33;;;0.47;;
30872;SDS011;17579;42.690;2.586;2023-04-15T04:34:35;1.08;;;0.50;;
30872;SDS011;17579;42.690;2.586;2023-04-15T04:37:08;1.42;;;0.40;;
30872;SDS011;17579;42.690;2.586;2023-04-15T04:39:34;1.10;;;0.50;;
30872;SDS011;17579;42.690;2.586;2023-04-15T04:42:03;1.77;;;0.50;;
30872;SDS011;17579;42.690;2.586;2023-04-15T04:44:29;2.15;;;0.50;;
30872;SDS011;17579;42.690;2.586;2023-04-15T04:46:57;1.65;;;0.60;;
30872;SDS011;17579;42.690;2.586;2023-04-15T04:49:32;1.08;;;0.43;;
30872;SDS011;17579;42.690;2.586;2023-04-15T04:52:07;1.10;;;0.60;;
30872;SDS011;17579;42.690;2.586;2023-04-15T04:54:33;1.58;;;0.68;;
30872;SDS011;17579;42.690;2.586;2023-04-15T04:57:19;1.98;;;0.95;;
30872;SDS011;17579;42.690;2.586;2023-04-15T04:59:44;1.70;;;0.68;;
30872;SDS011;17579;42.690;2.586;2023-04-15T05:02:18;1.90;;;0.55;;
30872;SDS011;17579;42.690;2.586;2023-04-15T05:04:44;1.25;;;0.60;;
30872;SDS011;17579;42.690;2.586;2023-04-15T05:07:13;1.67;;;0.50;;
30872;SDS011;17579;42.690;2.586;2023-04-15T05:09:41;0.95;;;0.52;;
30872;SDS011;17579;42.690;2.586;2023-04-15T05:12:07;1.65;;;0.70;;
30872;SDS011;17579;42.690;2.586;2023-04-15T05:14:33;1.25;;;0.63;;
30872;SDS011;17579;42.690;2.586;2023-04-15T05:16:59;0.50;;;0.32;;
30872;SDS011;17579;42.690;2.586;2023-04-15T05:19:27;1.45;;;0.60;;
30872;SDS011;17579;42.690;2.586;2023-04-15T05:21:56;1.92;;;0.65;;
30872;SDS011;17579;42.690;2.586;2023-04-15T05:24:25;1.95;;;0.52;;
30872;SDS011;17579;42.690;2.586;2023-04-15T05:26:53;0.30;;;0.20;;
30872;SDS011;17579;42.690;2.586;2023-04-15T05:32:11;0.52;;;0.38;;
30872;SDS011;17579;42.690;2.586;2023-04-15T05:34:36;0.40;;;0.30;;
30872;SDS011;17579;42.690;2.586;2023-04-15T05:37:02;0.45;;;0.22;;
30872;SDS011;17579;42.690;2.586;2023-04-15T05:39:28;0.50;;;0.30;;
30872;SDS011;17579;42.690;2.586;2023-04-15T05:41:55;0.70;;;0.50;;
30872;SDS011;17579;42.690;2.586;2023-04-15T05:44:21;1.08;;;0.30;;
30872;SDS011;17579;42.690;2.586;2023-04-15T05:47:34;0.68;;;0.43;;
30872;SDS011;17579;42.690;2.586;2023-04-15T05:49:42;0.43;;;0.30;;
30872;SDS011;17579;42.690;2.586;2023-04-15T05:52:18;0.75;;;0.35;;
30872;SDS011;17579;42.690;2.586;2023-04-15T05:54:44;0.60;;;0.38;;
30872;SDS011;17579;42.690;2.586;2023-04-15T05:57:12;1.17;;;0.40;;
30872;SDS011;17579;42.690;2.586;2023-04-15T05:59:38;0.90;;;0.52;;
30872;SDS011;17579;42.690;2.586;2023-04-15T06:02:09;1.17;;;0.40;;
30872;SDS011;17579;42.690;2.586;2023-04-15T06:07:26;1.88;;;0.47;;
30872;SDS011;17579;42.690;2.586;2023-04-15T06:09:51;0.38;;;0.30;;
30872;SDS011;17579;42.690;2.586;2023-04-15T06:12:18;1.02;;;0.43;;
30872;SDS011;17579;42.690;2.586;2023-04-15T06:14:44;0.30;;;0.30;;
30872;SDS011;17579;42.690;2.586;2023-04-15T06:17:09;0.73;;;0.40;;
30872;SDS011;17579;42.690;2.586;2023-04-15T06:19:46;0.30;;;0.30;;
30872;SDS011;17579;42.690;2.586;2023-04-15T06:22:15;0.80;;;0.40;;
30872;SDS011;17579;42.690;2.586;2023-04-15T06:24:41;0.50;;;0.40;;
30872;SDS011;17579;42.690;2.586;2023-04-15T06:27:06;0.57;;;0.40;;
30872;SDS011;17579;42.690;2.586;2023-04-15T06:29:49;0.70;;;0.50;;
30872;SDS011;17579;42.690;2.586;2023-04-15T06:32:15;1.63;;;0.60;;
30872;SDS011;17579;42.690;2.586;2023-04-15T06:34:40;2.35;;;0.63;;
30872;SDS011;17579;42.690;2.586;2023-04-15T06:37:06;0.50;;;0.30;;
30872;SDS011;17579;42.690;2.586;2023-04-15T06:39:39;0.60;;;0.47;;
30872;SDS011;17579;42.690;2.586;2023-04-15T06:42:09;1.42;;;0.65;;
30872;SDS011;17579;42.690;2.586;2023-04-15T06:44:41;0.57;;;0.57;;
30872;SDS011;17579;42.690;2.586;2023-04-15T06:47:06;0.73;;;0.65;;
30872;SDS011;17579;42.690;2.586;2023-04-15T06:49:37;0.47;;;0.40;;
30872;SDS011;17579;42.690;2.586;2023-04-15T06:52:04;0.75;;;0.32;;
30872;SDS011;17579;42.690;2.586;2023-04-15T06:54:36;1.67;;;0.57;;
30872;SDS011;17579;42.690;2.586;2023-04-15T06:57:04;1.00;;;0.55;;
30872;SDS011;17579;42.690;2.586;2023-04-15T07:02:41;0.85;;;0.43;;
30872;SDS011;17579;42.690;2.586;2023-04-15T07:08:23;0.85;;;0.50;;
30872;SDS011;17579;42.690;2.586;2023-04-15T07:10:59;0.40;;;0.40;;
30872;SDS011;17579;42.690;2.586;2023-04-15T07:13:48;0.40;;;0.40;;
30872;SDS011;17579;42.690;2.586;2023-04-15T07:16:14;0.60;;;0.40;;
30872;SDS011;17579;42.690;2.586;2023-04-15T07:18:40;0.20;;;0.20;;
30872;SDS011;17579;42.690;2.586;2023-04-15T07:21:11;0.95;;;0.30;;
30872;SDS011;17579;42.690;2.586;2023-04-15T07:23:39;0.63;;;0.40;;
30872;SDS011;17579;42.690;2.586;2023-04-15T07:26:07;0.70;;;0.40;;
30872;SDS011;17579;42.690;2.586;2023-04-15T07:28:36;0.40;;;0.40;;
30872;SDS011;17579;42.690;2.586;2023-04-15T07:31:11;0.40;;;0.40;;
30872;SDS011;17579;42.690;2.586;2023-04-15T07:33:37;0.73;;;0.40;;
30872;SDS011;17579;42.690;2.586;2023-04-15T07:38:57;0.20;;;0.20;;
30872;SDS011;17579;42.690;2.586;2023-04-15T07:41:32;0.30;;;0.30;;
30872;SDS011;17579;42.690;2.586;2023-04-15T07:44:08;0.38;;;0.28;;
30872;SDS011;17579;42.690;2.586;2023-04-15T07:46:37;0.10;;;0.10;;
30872;SDS011;17579;42.690;2.586;2023-04-15T07:49:03;1.45;;;0.20;;
30872;SDS011;17579;42.690;2.586;2023-04-15T07:51:31;0.25;;;0.20;;
30872;SDS011;17579;42.690;2.586;2023-04-15T07:54:02;0.17;;;0.15;;
30872;SDS011;17579;42.690;2.586;2023-04-15T07:56:38;0.20;;;0.20;;
30872;SDS011;17579;42.690;2.586;2023-04-15T07:59:06;1.55;;;0.20;;
30872;SDS011;17579;42.690;2.586;2023-04-15T08:01:44;0.95;;;0.20;;
30872;SDS011;17579;42.690;2.586;2023-04-15T08:04:10;0.20;;;0.20;;
30872;SDS011;17579;42.690;2.586;2023-04-15T08:06:41;0.20;;;0.20;;
30872;SDS011;17579;42.690;2.586;2023-04-15T08:09:46;1.75;;;0.25;;
30872;SDS011;17579;42.690;2.586;2023-04-15T08:12:10;0.20;;;0.20;;
30872;SDS011;17579;42.690;2.586;2023-04-15T08:14:43;0.30;;;0.20;;
30872;SDS011;17579;42.690;2.586;2023-04-15T08:17:19;0.43;;;0.20;;
30872;SDS011;17579;42.690;2.586;2023-04-15T08:19:53;0.30;;;0.28;;
30872;SDS011;17579;42.690;2.586;2023-04-15T08:22:19;0.10;;;0.10;;
30872;SDS011;17579;42.690;2.586;2023-04-15T08:24:48;0.22;;;0.20;;
30872;SDS011;17579;42.690;2.586;2023-04-15T08:27:13;0.35;;;0.35;;
30872;SDS011;17579;42.690;2.586;2023-04-15T08:29:39;0.30;;;0.30;;
30872;SDS011;17579;42.690;2.586;2023-04-15T08:32:21;0.32;;;0.22;;
30872;SDS011;17579;42.690;2.586;2023-04-15T08:34:47;0.30;;;0.30;;
30872;SDS011;17579;42.690;2.586;2023-04-15T08:37:23;0.40;;;0.40;;
30872;SDS011;17579;42.690;2.586;2023-04-15T08:39:59;0.63;;;0.40;;
30872;SDS011;17579;42.690;2.586;2023-04-15T08:42:27;0.32;;;0.32;;
30872;SDS011;17579;42.690;2.586;2023-04-15T08:44:58;0.88;;;0.60;;
30872;SDS011;17579;42.690;2.586;2023-04-15T08:47:57;0.40;;;0.40;;
30872;SDS011;17579;42.690;2.586;2023-04-15T08:50:25;1.70;;;0.50;;
30872;SDS011;17579;42.690;2.586;2023-04-15T08:52:59;0.50;;;0.50;;
30872;SDS011;17579;42.690;2.586;2023-04-15T08:55:42;0.40;;;0.40;;
30872;SDS011;17579;42.690;2.586;2023-04-15T08:58:12;2.78;;;0.60;;
30872;SDS011;17579;42.690;2.586;2023-04-15T09:00:40;2.08;;;0.45;;
30872;SDS011;17579;42.690;2.586;2023-04-15T09:03:07;1.10;;;0.63;;
30872;SDS011;17579;42.690;2.586;2023-04-15T09:05:36;0.75;;;0.70;;
30872;SDS011;17579;42.690;2.586;2023-04-15T09:08:10;0.68;;;0.60;;
30872;SDS011;17579;42.690;2.586;2023-04-15T09:10:36;0.30;;;0.30;;
30872;SDS011;17579;42.690;2.586;2023-04-15T09:13:02;0.60;;;0.40;;
30872;SDS011;17579;42.690;2.586;2023-04-15T09:15:31;0.52;;;0.45;;
30872;SDS011;17579;42.690;2.586;2023-04-15T09:18:06;1.17;;;0.65;;
30872;SDS011;17579;42.690;2.586;2023-04-15T09:20:37;0.30;;;0.30;;
30872;SDS011;17579;42.690;2.586;2023-04-15T09:25:53;0.40;;;0.35;;
30872;SDS011;17579;42.690;2.586;2023-04-15T09:28:23;0.30;;;0.30;;
30872;SDS011;17579;42.690;2.586;2023-04-15T09:30:51;0.35;;;0.30;;
30872;SDS011;17579;42.690;2.586;2023-04-15T09:33:53;0.47;;;0.47;;
30872;SDS011;17579;42.690;2.586;2023-04-15T09:36:23;1.35;;;0.20;;
30872;SDS011;17579;42.690;2.586;2023-04-15T09:38:59;0.32;;;0.30;;
30872;SDS011;17579;42.690;2.586;2023-04-15T09:41:28;0.30;;;0.30;;
30872;SDS011;17579;42.690;2.586;2023-04-15T09:43:54;0.35;;;0.30;;
30872;SDS011;17579;42.690;2.586;2023-04-15T09:46:43;0.60;;;0.20;;
30872;SDS011;17579;42.690;2.586;2023-04-15T09:49:12;0.45;;;0.30;;
30872;SDS011;17579;42.690;2.586;2023-04-15T09:51:47;0.45;;;0.20;;
30872;SDS011;17579;42.690;2.586;2023-04-15T09:54:17;0.10;;;0.10;;
30872;SDS011;17579;42.690;2.586;2023-04-15T09:57:07;0.47;;;0.38;;
30872;SDS011;17579;42.690;2.586;2023-04-15T09:59:37;0.28;;;0.28;;
30872;SDS011;17579;42.690;2.586;2023-04-15T10:02:10;0.28;;;0.20;;
30872;SDS011;17579;42.690;2.586;2023-04-15T10:04:39;1.13;;;0.20;;
30872;SDS011;17579;42.690;2.586;2023-04-15T10:07:07;0.20;;;0.20;;
30872;SDS011;17579;42.690;2.586;2023-04-15T10:09:34;0.10;;;0.10;;
30872;SDS011;17579;42.690;2.586;2023-04-15T10:12:03;0.17;;;0.10;;
30872;SDS011;17579;42.690;2.586;2023-04-15T10:14:31;0.30;;;0.30;;
30872;SDS011;17579;42.690;2.586;2023-04-15T10:17:00;0.25;;;0.25;;
30872;SDS011;17579;42.690;2.586;2023-04-15T10:19:46;0.20;;;0.20;;
30872;SDS011;17579;42.690;2.586;2023-04-15T10:22:37;0.30;;;0.30;;
30872;SDS011;17579;42.690;2.586;2023-04-15T10:25:06;0.52;;;0.20;;
30872;SDS011;17579;42.690;2.586;2023-04-15T10:27:33;0.35;;;0.30;;
30872;SDS011;17579;42.690;2.586;2023-04-15T10:30:20;0.10;;;0.10;;
30872;SDS011;17579;42.690;2.586;2023-04-15T10:32:47;0.40;;;0.40;;
30872;SDS011;17579;42.690;2.586;2023-04-15T10:35:19;0.15;;;0.15;;
30872;SDS011;17579;42.690;2.586;2023-04-15T10:37:52;0.28;;;0.28;;
30872;SDS011;17579;42.690;2.586;2023-04-15T10:40:32;0.20;;;0.20;;
30872;SDS011;17579;42.690;2.586;2023-04-15T10:43:01;0.25;;;0.10;;
30872;SDS011;17579;42.690;2.586;2023-04-15T10:45:27;0.13;;;0.13;;
30872;SDS011;17579;42.690;2.586;2023-04-15T10:48:00;0.20;;;0.20;;
30872;SDS011;17579;42.690;2.586;2023-04-15T10:53:25;0.10;;;0.10;;
30872;SDS011;17579;42.690;2.586;2023-04-15T10:55:53;0.20;;;0.20;;
30872;SDS011;17579;42.690;2.586;2023-04-15T10:58:22;0.13;;;0.13;;
30872;SDS011;17579;42.690;2.586;2023-04-15T11:01:08;0.10;;;0.10;;
30872;SDS011;17579;42.690;2.586;2023-04-15T11:03:49;0.10;;;0.10;;
30872;SDS011;17579;42.690;2.586;2023-04-15T11:06:18;0.10;;;0.10;;
30872;SDS011;17579;42.690;2.586;2023-04-15T11:09:06;0.10;;;0.10;;
30872;SDS011;17579;42.690;2.586;2023-04-15T11:14:03;0.47;;;0.20;;
30872;SDS011;17579;42.690;2.586;2023-04-15T11:16:29;0.20;;;0.13;;
30872;SDS011;17579;42.690;2.586;2023-04-15T11:19:09;0.10;;;0.10;;
30872;SDS011;17579;42.690;2.586;2023-04-15T11:22:05;0.10;;;0.10;;
30872;SDS011;17579;42.690;2.586;2023-04-15T11:24:46;0.20;;;0.20;;
30872;SDS011;17579;42.690;2.586;2023-04-15T11:27:32;0.32;;;0.15;;
30872;SDS011;17579;42.690;2.586;2023-04-15T11:29:58;0.38;;;0.10;;
30872;SDS011;17579;42.690;2.586;2023-04-15T11:32:24;0.10;;;0.10;;
30872;SDS011;17579;42.690;2.586;2023-04-15T11:34:50;0.10;;;0.10;;
30872;SDS011;17579;42.690;2.586;2023-04-15T11:37:26;0.10;;;0.10;;
30872;SDS011;17579;42.690;2.586;2023-04-15T11:40:01;0.10;;;0.10;;
30872;SDS011;17579;42.690;2.586;2023-04-15T11:42:41;0.20;;;0.10;;
30872;SDS011;17579;42.690;2.586;2023-04-15T11:45:11;0.30;;;0.20;;
30872;SDS011;17579;42.690;2.586;2023-04-15T11:47:41;0.10;;;0.10;;
30872;SDS011;17579;42.690;2.586;2023-04-15T11:52:34;0.10;;;0.10;;
30872;SDS011;17579;42.690;2.586;2023-04-15T11:55:06;0.10;;;0.10;;
30872;SDS011;17579;42.690;2.586;2023-04-15T11:57:34;0.38;;;0.20;;
30872;SDS011;17579;42.690;2.586;2023-04-15T12:00:18;0.10;;;0.10;;
30872;SDS011;17579;42.690;2.586;2023-04-15T12:02:45;0.20;;;0.20;;
30872;SDS011;17579;42.690;2.586;2023-04-15T12:05:16;0.15;;;0.15;;
30872;SDS011;17579;42.690;2.586;2023-04-15T12:10:23;0.20;;;0.20;;
30872;SDS011;17579;42.690;2.586;2023-04-15T12:12:59;0.10;;;0.10;;
30872;SDS011;17579;42.690;2.586;2023-04-15T12:18:22;0.38;;;0.30;;
30872;SDS011;17579;42.690;2.586;2023-04-15T12:20:49;0.28;;;0.28;;
30872;SDS011;17579;42.690;2.586;2023-04-15T12:23:20;0.55;;;0.30;;
30872;SDS011;17579;42.690;2.586;2023-04-15T12:28:16;0.65;;;0.55;;
30872;SDS011;17579;42.690;2.586;2023-04-15T12:30:58;0.90;;;0.30;;
30872;SDS011;17579;42.690;2.586;2023-04-15T12:33:37;0.15;;;0.15;;
30872;SDS011;17579;42.690;2.586;2023-04-15T12:36:04;0.15;;;0.15;;
30872;SDS011;17579;42.690;2.586;2023-04-15T12:38:36;0.63;;;0.30;;
30872;SDS011;17579;42.690;2.586;2023-04-15T12:41:07;0.63;;;0.40;;
30872;SDS011;17579;42.690;2.586;2023-04-15T12:43:38;1.08;;;0.52;;
30872;SDS011;17579;42.690;2.586;2023-04-15T12:46:11;0.93;;;0.60;;
30872;SDS011;17579;42.690;2.586;2023-04-15T12:48:40;0.80;;;0.65;;
30872;SDS011;17579;42.690;2.586;2023-04-15T12:51:09;1.63;;;0.50;;
30872;SDS011;17579;42.690;2.586;2023-04-15T12:53:45;1.25;;;0.60;;
30872;SDS011;17579;42.690;2.586;2023-04-15T12:56:14;0.60;;;0.40;;
30872;SDS011;17579;42.690;2.586;2023-04-15T12:58:43;0.98;;;0.57;;
30872;SDS011;17579;42.690;2.586;2023-04-15T13:01:11;0.73;;;0.60;;
30872;SDS011;17579;42.690;2.586;2023-04-15T13:03:37;0.73;;;0.50;;
30872;SDS011;17579;42.690;2.586;2023-04-15T13:06:02;2.30;;;0.80;;
30872;SDS011;17579;42.690;2.586;2023-04-15T13:08:29;1.35;;;0.82;;
30872;SDS011;17579;42.690;2.586;2023-04-15T13:11:10;0.90;;;0.70;;
30872;SDS011;17579;42.690;2.586;2023-04-15T13:13:36;1.90;;;0.60;;
30872;SDS011;17579;42.690;2.586;2023-04-15T13:16:22;0.80;;;0.60;;
30872;SDS011;17579;42.690;2.586;2023-04-15T13:18:54;1.63;;;0.90;;
30872;SDS011;17579;42.690;2.586;2023-04-15T13:21:22;1.88;;;0.75;;
30872;SDS011;17579;42.690;2.586;2023-04-15T13:23:52;3.05;;;0.90;;
30872;SDS011;17579;42.690;2.586;2023-04-15T13:26:21;2.25;;;0.70;;
30872;SDS011;17579;42.690;2.586;2023-04-15T13:31:46;1.55;;;0.90;;
30872;SDS011;17579;42.690;2.586;2023-04-15T13:34:32;1.63;;;1.00;;
30872;SDS011;17579;42.690;2.586;2023-04-15T13:37:07;1.70;;;0.65;;
30872;SDS011;17579;42.690;2.586;2023-04-15T13:39:49;1.48;;;0.80;;
30872;SDS011;17579;42.690;2.586;2023-04-15T13:42:17;1.25;;;0.57;;
30872;SDS011;17579;42.690;2.586;2023-04-15T13:44:43;2.38;;;0.80;;
30872;SDS011;17579;42.690;2.586;2023-04-15T13:47:12;1.17;;;0.88;;
30872;SDS011;17579;42.690;2.586;2023-04-15T13:49:42;2.83;;;0.90;;
30872;SDS011;17579;42.690;2.586;2023-04-15T13:52:08;1.95;;;1.00;;
30872;SDS011;17579;42.690;2.586;2023-04-15T13:54:42;1.30;;;0.68;;
30872;SDS011;17579;42.690;2.586;2023-04-15T13:57:11;1.88;;;0.85;;
30872;SDS011;17579;42.690;2.586;2023-04-15T13:59:37;2.65;;;0.80;;
30872;SDS011;17579;42.690;2.586;2023-04-15T14:02:03;2.88;;;1.10;;
30872;SDS011;17579;42.690;2.586;2023-04-15T14:04:33;2.50;;;0.80;;
30872;SDS011;17579;42.690;2.586;2023-04-15T14:06:59;2.03;;;0.90;;
30872;SDS011;17579;42.690;2.586;2023-04-15T14:09:28;3.22;;;0.80;;
30872;SDS011;17579;42.690;2.586;2023-04-15T14:11:59;0.82;;;0.55;;
30872;SDS011;17579;42.690;2.586;2023-04-15T14:14:28;3.25;;;0.80;;
30872;SDS011;17579;42.690;2.586;2023-04-15T14:16:56;1.80;;;0.75;;
30872;SDS011;17579;42.690;2.586;2023-04-15T14:19:22;1.92;;;1.20;;
30872;SDS011;17579;42.690;2.586;2023-04-15T14:21:52;2.08;;;1.08;;
30872;SDS011;17579;42.690;2.586;2023-04-15T14:24:30;1.63;;;1.00;;
30872;SDS011;17579;42.690;2.586;2023-04-15T14:26:57;1.95;;;0.82;;
30872;SDS011;17579;42.690;2.586;2023-04-15T14:29:26;6.82;;;1.42;;
30872;SDS011;17579;42.690;2.586;2023-04-15T14:32:05;1.40;;;0.80;;
30872;SDS011;17579;42.690;2.586;2023-04-15T14:34:53;3.88;;;1.08;;
30872;SDS011;17579;42.690;2.586;2023-04-15T14:37:22;2.38;;;0.93;;
30872;SDS011;17579;42.690;2.586;2023-04-15T14:39:51;1.90;;;0.80;;
30872;SDS011;17579;42.690;2.586;2023-04-15T14:42:42;2.70;;;1.20;;
30872;SDS011;17579;42.690;2.586;2023-04-15T14:45:13;1.63;;;0.88;;
30872;SDS011;17579;42.690;2.586;2023-04-15T14:47:46;2.42;;;1.20;;
30872;SDS011;17579;42.690;2.586;2023-04-15T14:53:12;1.67;;;0.90;;
30872;SDS011;17579;42.690;2.586;2023-04-15T14:55:38;1.63;;;1.05;;
30872;SDS011;17579;42.690;2.586;2023-04-15T14:58:04;4.15;;;1.10;;
30872;SDS011;17579;42.690;2.586;2023-04-15T15:00:34;1.83;;;1.08;;
30872;SDS011;17579;42.690;2.586;2023-04-15T15:03:03;2.92;;;0.98;;
30872;SDS011;17579;42.690;2.586;2023-04-15T15:05:37;2.45;;;0.93;;
30872;SDS011;17579;42.690;2.586;2023-04-15T15:08:07;3.38;;;1.10;;
30872;SDS011;17579;42.690;2.586;2023-04-15T15:10:39;2.22;;;1.00;;
30872;SDS011;17579;42.690;2.586;2023-04-15T15:13:08;7.28;;;1.17;;
30872;SDS011;17579;42.690;2.586;2023-04-15T15:15:36;2.20;;;1.20;;
30872;SDS011;17579;42.690;2.586;2023-04-15T15:18:03;2.13;;;1.13;;
30872;SDS011;17579;42.690;2.586;2023-04-15T15:20:32;3.20;;;1.15;;
30872;SDS011;17579;42.690;2.586;2023-04-15T15:23:00;2.67;;;1.20;;
30872;SDS011;17579;42.690;2.586;2023-04-15T15:25:29;4.40;;;1.33;;
30872;SDS011;17579;42.690;2.586;2023-04-15T15:27:55;3.10;;;1.10;;
30872;SDS011;17579;42.690;2.586;2023-04-15T15:30:24;5.30;;;1.40;;
30872;SDS011;17579;42.690;2.586;2023-04-15T15:32:55;2.60;;;0.98;;
30872;SDS011;17579;42.690;2.586;2023-04-15T15:35:21;2.45;;;1.02;;
30872;SDS011;17579;42.690;2.586;2023-04-15T15:37:49;1.95;;;0.90;;
30872;SDS011;17579;42.690;2.586;2023-04-15T15:43:13;2.03;;;1.20;;
30872;SDS011;17579;42.690;2.586;2023-04-15T15:45:41;8.32;;;1.10;;
30872;SDS011;17579;42.690;2.586;2023-04-15T15:48:09;1.95;;;1.00;;
30872;SDS011;17579;42.690;2.586;2023-04-15T15:50:55;3.65;;;1.23;;
30872;SDS011;17579;42.690;2.586;2023-04-15T15:53:21;1.42;;;0.82;;
30872;SDS011;17579;42.690;2.586;2023-04-15T15:55:53;2.72;;;1.35;;
30872;SDS011;17579;42.690;2.586;2023-04-15T15:58:32;3.67;;;1.00;;
30872;SDS011;17579;42.690;2.586;2023-04-15T16:01:03;3.15;;;1.05;;
30872;SDS011;17579;42.690;2.586;2023-04-15T16:03:29;2.42;;;1.10;;
30872;SDS011;17579;42.690;2.586;2023-04-15T16:06:15;1.85;;;0.93;;